sensor_id;sensor_type;location;lat;lon;timestamp;P1;durP1;ratioP1;P2;durP2;ratioP2
40635;SDS011;26642;55.766;37.828;2022-08-19T00:01:38;8.80;;;5.90;;
40635;SDS011;26642;55.766;37.828;2022-08-19T00:04:06;10.23;;;5.75;;
40635;SDS011;26642;55.766;37.828;2022-08-19T00:06:33;11.20;;;5.82;;
40635;SDS011;26642;55.766;37.828;2022-08-19T00:09:01;11.30;;;5.80;;
40635;SDS011;26642;55.766;37.828;2022-08-19T00:11:28;11.23;;;5.82;;
40635;SDS011;26642;55.766;37.828;2022-08-19T00:13:55;11.73;;;5.75;;
40635;SDS011;26642;55.766;37.828;2022-08-19T00:16:22;10.23;;;5.40;;
40635;SDS011;26642;55.766;37.828;2022-08-19T00:18:49;9.23;;;6.05;;
40635;SDS011;26642;55.766;37.828;2022-08-19T00:21:15;10.35;;;6.47;;
40635;SDS011;26642;55.766;37.828;2022-08-19T00:23:42;9.95;;;5.32;;
40635;SDS011;26642;55.766;37.828;2022-08-19T00:26:08;8.35;;;5.65;;
40635;SDS011;26642;55.766;37.828;2022-08-19T00:28:35;9.40;;;5.70;;
40635;SDS011;26642;55.766;37.828;2022-08-19T00:31:03;12.52;;;6.28;;
40635;SDS011;26642;55.766;37.828;2022-08-19T00:33:30;9.82;;;6.55;;
40635;SDS011;26642;55.766;37.828;2022-08-19T00:36:00;10.32;;;6.07;;
40635;SDS011;26642;55.766;37.828;2022-08-19T00:38:27;10.25;;;6.70;;
40635;SDS011;26642;55.766;37.828;2022-08-19T00:40:53;11.63;;;6.40;;
40635;SDS011;26642;55.766;37.828;2022-08-19T00:43:20;11.27;;;6.82;;
40635;SDS011;26642;55.766;37.828;2022-08-19T00:45:48;10.32;;;6.47;;
40635;SDS011;26642;55.766;37.828;2022-08-19T00:48:15;16.00;;;6.88;;
40635;SDS011;26642;55.766;37.828;2022-08-19T00:50:42;15.40;;;7.57;;
40635;SDS011;26642;55.766;37.828;2022-08-19T00:53:10;9.55;;;6.63;;
40635;SDS011;26642;55.766;37.828;2022-08-19T00:55:40;13.00;;;6.93;;
40635;SDS011;26642;55.766;37.828;2022-08-19T00:58:10;11.35;;;6.50;;
40635;SDS011;26642;55.766;37.828;2022-08-19T01:00:38;10.60;;;6.93;;
40635;SDS011;26642;55.766;37.828;2022-08-19T01:03:06;10.77;;;6.85;;
40635;SDS011;26642;55.766;37.828;2022-08-19T01:05:36;14.27;;;6.97;;
40635;SDS011;26642;55.766;37.828;2022-08-19T01:08:05;13.80;;;7.32;;
40635;SDS011;26642;55.766;37.828;2022-08-19T01:10:33;14.55;;;6.93;;
40635;SDS011;26642;55.766;37.828;2022-08-19T01:13:07;12.80;;;6.97;;
40635;SDS011;26642;55.766;37.828;2022-08-19T01:15:38;12.88;;;7.55;;
40635;SDS011;26642;55.766;37.828;2022-08-19T01:18:09;14.10;;;7.57;;
40635;SDS011;26642;55.766;37.828;2022-08-19T01:20:38;14.88;;;8.00;;
40635;SDS011;26642;55.766;37.828;2022-08-19T01:23:05;13.55;;;7.68;;
40635;SDS011;26642;55.766;37.828;2022-08-19T01:25:33;14.75;;;7.10;;
40635;SDS011;26642;55.766;37.828;2022-08-19T01:28:26;14.38;;;7.65;;
40635;SDS011;26642;55.766;37.828;2022-08-19T01:30:53;14.48;;;7.22;;
40635;SDS011;26642;55.766;37.828;2022-08-19T01:33:20;13.52;;;7.05;;
40635;SDS011;26642;55.766;37.828;2022-08-19T01:35:46;16.25;;;7.97;;
40635;SDS011;26642;55.766;37.828;2022-08-19T01:38:21;12.77;;;7.60;;
40635;SDS011;26642;55.766;37.828;2022-08-19T01:40:49;13.93;;;7.68;;
40635;SDS011;26642;55.766;37.828;2022-08-19T01:43:16;11.27;;;7.55;;
40635;SDS011;26642;55.766;37.828;2022-08-19T01:45:44;11.68;;;7.45;;
40635;SDS011;26642;55.766;37.828;2022-08-19T01:48:11;14.43;;;7.97;;
40635;SDS011;26642;55.766;37.828;2022-08-19T01:50:38;14.52;;;7.60;;
40635;SDS011;26642;55.766;37.828;2022-08-19T01:53:07;13.48;;;7.45;;
40635;SDS011;26642;55.766;37.828;2022-08-19T01:55:37;12.50;;;7.05;;
40635;SDS011;26642;55.766;37.828;2022-08-19T01:58:05;14.20;;;7.65;;
40635;SDS011;26642;55.766;37.828;2022-08-19T02:00:32;12.05;;;7.05;;
40635;SDS011;26642;55.766;37.828;2022-08-19T02:02:58;9.23;;;7.07;;
40635;SDS011;26642;55.766;37.828;2022-08-19T02:05:26;15.18;;;7.93;;
40635;SDS011;26642;55.766;37.828;2022-08-19T02:07:54;14.43;;;6.88;;
40635;SDS011;26642;55.766;37.828;2022-08-19T02:10:21;13.02;;;7.20;;
40635;SDS011;26642;55.766;37.828;2022-08-19T02:12:48;10.73;;;6.78;;
40635;SDS011;26642;55.766;37.828;2022-08-19T02:15:15;15.82;;;7.32;;
40635;SDS011;26642;55.766;37.828;2022-08-19T02:17:44;14.73;;;6.95;;
40635;SDS011;26642;55.766;37.828;2022-08-19T02:20:10;14.25;;;7.38;;
40635;SDS011;26642;55.766;37.828;2022-08-19T02:22:37;14.75;;;6.60;;
40635;SDS011;26642;55.766;37.828;2022-08-19T02:25:06;11.93;;;6.70;;
40635;SDS011;26642;55.766;37.828;2022-08-19T02:27:33;12.77;;;6.40;;
40635;SDS011;26642;55.766;37.828;2022-08-19T02:29:59;10.80;;;6.30;;
40635;SDS011;26642;55.766;37.828;2022-08-19T02:32:26;11.35;;;6.72;;
40635;SDS011;26642;55.766;37.828;2022-08-19T02:34:52;12.68;;;6.55;;
40635;SDS011;26642;55.766;37.828;2022-08-19T02:37:18;10.18;;;6.53;;
40635;SDS011;26642;55.766;37.828;2022-08-19T02:40:03;14.77;;;6.88;;
40635;SDS011;26642;55.766;37.828;2022-08-19T02:42:29;13.90;;;6.32;;
40635;SDS011;26642;55.766;37.828;2022-08-19T02:44:56;13.20;;;5.72;;
40635;SDS011;26642;55.766;37.828;2022-08-19T02:47:22;9.85;;;5.88;;
40635;SDS011;26642;55.766;37.828;2022-08-19T02:49:48;13.45;;;5.90;;
40635;SDS011;26642;55.766;37.828;2022-08-19T02:52:17;10.25;;;6.30;;
40635;SDS011;26642;55.766;37.828;2022-08-19T02:54:43;14.43;;;6.50;;
40635;SDS011;26642;55.766;37.828;2022-08-19T02:57:09;11.23;;;5.90;;
40635;SDS011;26642;55.766;37.828;2022-08-19T02:59:35;9.85;;;5.88;;
40635;SDS011;26642;55.766;37.828;2022-08-19T03:02:01;11.43;;;5.90;;
40635;SDS011;26642;55.766;37.828;2022-08-19T03:04:27;12.45;;;5.97;;
40635;SDS011;26642;55.766;37.828;2022-08-19T03:06:54;13.85;;;6.78;;
40635;SDS011;26642;55.766;37.828;2022-08-19T03:09:20;12.38;;;6.18;;
40635;SDS011;26642;55.766;37.828;2022-08-19T03:11:46;11.38;;;6.18;;
40635;SDS011;26642;55.766;37.828;2022-08-19T03:14:13;10.50;;;5.72;;
40635;SDS011;26642;55.766;37.828;2022-08-19T03:16:43;11.20;;;6.53;;
40635;SDS011;26642;55.766;37.828;2022-08-19T03:19:11;14.00;;;6.68;;
40635;SDS011;26642;55.766;37.828;2022-08-19T03:21:37;14.95;;;7.50;;
40635;SDS011;26642;55.766;37.828;2022-08-19T03:24:04;12.82;;;6.28;;
40635;SDS011;26642;55.766;37.828;2022-08-19T03:26:32;12.40;;;6.10;;
40635;SDS011;26642;55.766;37.828;2022-08-19T03:29:03;11.75;;;6.38;;
40635;SDS011;26642;55.766;37.828;2022-08-19T03:31:30;13.82;;;6.38;;
40635;SDS011;26642;55.766;37.828;2022-08-19T03:33:56;11.10;;;6.30;;
40635;SDS011;26642;55.766;37.828;2022-08-19T03:36:23;13.15;;;6.70;;
40635;SDS011;26642;55.766;37.828;2022-08-19T03:38:52;10.60;;;6.60;;
40635;SDS011;26642;55.766;37.828;2022-08-19T03:41:22;11.05;;;7.00;;
40635;SDS011;26642;55.766;37.828;2022-08-19T03:44:02;11.07;;;6.75;;
40635;SDS011;26642;55.766;37.828;2022-08-19T03:46:30;12.27;;;6.72;;
40635;SDS011;26642;55.766;37.828;2022-08-19T03:48:58;11.48;;;6.43;;
40635;SDS011;26642;55.766;37.828;2022-08-19T03:51:29;11.48;;;6.63;;
40635;SDS011;26642;55.766;37.828;2022-08-19T03:54:00;17.70;;;6.67;;
40635;SDS011;26642;55.766;37.828;2022-08-19T03:56:28;13.85;;;6.53;;
40635;SDS011;26642;55.766;37.828;2022-08-19T03:58:55;11.38;;;6.22;;
40635;SDS011;26642;55.766;37.828;2022-08-19T04:01:22;11.23;;;6.38;;
40635;SDS011;26642;55.766;37.828;2022-08-19T04:03:52;9.82;;;6.03;;
40635;SDS011;26642;55.766;37.828;2022-08-19T04:06:20;9.27;;;6.13;;
40635;SDS011;26642;55.766;37.828;2022-08-19T04:08:49;10.02;;;6.50;;
40635;SDS011;26642;55.766;37.828;2022-08-19T04:11:17;14.05;;;5.93;;
40635;SDS011;26642;55.766;37.828;2022-08-19T04:13:48;9.05;;;6.13;;
40635;SDS011;26642;55.766;37.828;2022-08-19T04:16:19;9.55;;;5.32;;
40635;SDS011;26642;55.766;37.828;2022-08-19T04:18:49;11.15;;;5.72;;
40635;SDS011;26642;55.766;37.828;2022-08-19T04:21:17;7.30;;;5.43;;
40635;SDS011;26642;55.766;37.828;2022-08-19T04:23:45;13.02;;;5.57;;
40635;SDS011;26642;55.766;37.828;2022-08-19T04:26:13;13.00;;;5.75;;
40635;SDS011;26642;55.766;37.828;2022-08-19T04:28:41;8.15;;;5.63;;
40635;SDS011;26642;55.766;37.828;2022-08-19T04:31:12;11.50;;;5.20;;
40635;SDS011;26642;55.766;37.828;2022-08-19T04:33:40;10.00;;;6.30;;
40635;SDS011;26642;55.766;37.828;2022-08-19T04:36:06;10.90;;;5.80;;
40635;SDS011;26642;55.766;37.828;2022-08-19T04:38:33;11.05;;;6.05;;
40635;SDS011;26642;55.766;37.828;2022-08-19T04:40:59;7.80;;;4.70;;
40635;SDS011;26642;55.766;37.828;2022-08-19T04:43:44;12.30;;;6.00;;
40635;SDS011;26642;55.766;37.828;2022-08-19T04:46:14;9.70;;;5.05;;
40635;SDS011;26642;55.766;37.828;2022-08-19T04:48:40;9.88;;;5.47;;
40635;SDS011;26642;55.766;37.828;2022-08-19T04:51:07;8.98;;;5.25;;
40635;SDS011;26642;55.766;37.828;2022-08-19T04:53:35;11.52;;;5.40;;
40635;SDS011;26642;55.766;37.828;2022-08-19T04:56:07;9.93;;;5.45;;
40635;SDS011;26642;55.766;37.828;2022-08-19T04:58:38;8.40;;;5.28;;
40635;SDS011;26642;55.766;37.828;2022-08-19T05:01:08;9.30;;;5.35;;
40635;SDS011;26642;55.766;37.828;2022-08-19T05:03:35;8.35;;;4.80;;
40635;SDS011;26642;55.766;37.828;2022-08-19T05:06:05;9.65;;;5.07;;
40635;SDS011;26642;55.766;37.828;2022-08-19T05:08:39;7.97;;;4.78;;
40635;SDS011;26642;55.766;37.828;2022-08-19T05:11:12;10.68;;;4.57;;
40635;SDS011;26642;55.766;37.828;2022-08-19T05:13:41;8.15;;;5.22;;
40635;SDS011;26642;55.766;37.828;2022-08-19T05:16:09;8.13;;;4.45;;
40635;SDS011;26642;55.766;37.828;2022-08-19T05:18:36;9.68;;;4.20;;
40635;SDS011;26642;55.766;37.828;2022-08-19T05:21:21;8.30;;;4.88;;
40635;SDS011;26642;55.766;37.828;2022-08-19T05:24:06;9.98;;;4.78;;
40635;SDS011;26642;55.766;37.828;2022-08-19T05:26:41;9.75;;;5.07;;
40635;SDS011;26642;55.766;37.828;2022-08-19T05:29:10;10.88;;;4.72;;
40635;SDS011;26642;55.766;37.828;2022-08-19T05:31:36;12.18;;;4.38;;
40635;SDS011;26642;55.766;37.828;2022-08-19T05:34:04;11.48;;;4.75;;
40635;SDS011;26642;55.766;37.828;2022-08-19T05:36:33;13.52;;;4.68;;
40635;SDS011;26642;55.766;37.828;2022-08-19T05:39:02;10.77;;;4.80;;
40635;SDS011;26642;55.766;37.828;2022-08-19T05:41:29;7.93;;;4.60;;
40635;SDS011;26642;55.766;37.828;2022-08-19T05:43:56;8.68;;;4.78;;
40635;SDS011;26642;55.766;37.828;2022-08-19T05:46:23;10.25;;;4.78;;
40635;SDS011;26642;55.766;37.828;2022-08-19T05:48:49;6.22;;;4.43;;
40635;SDS011;26642;55.766;37.828;2022-08-19T05:51:15;10.13;;;4.80;;
40635;SDS011;26642;55.766;37.828;2022-08-19T05:53:42;5.10;;;4.28;;
40635;SDS011;26642;55.766;37.828;2022-08-19T05:56:10;7.55;;;4.75;;
40635;SDS011;26642;55.766;37.828;2022-08-19T05:58:41;8.95;;;4.85;;
40635;SDS011;26642;55.766;37.828;2022-08-19T06:01:10;7.75;;;4.55;;
40635;SDS011;26642;55.766;37.828;2022-08-19T06:03:37;9.80;;;4.63;;
40635;SDS011;26642;55.766;37.828;2022-08-19T06:06:05;7.40;;;4.90;;
40635;SDS011;26642;55.766;37.828;2022-08-19T06:08:33;9.43;;;4.88;;
40635;SDS011;26642;55.766;37.828;2022-08-19T06:11:22;11.25;;;4.53;;
40635;SDS011;26642;55.766;37.828;2022-08-19T06:13:49;7.15;;;4.93;;
40635;SDS011;26642;55.766;37.828;2022-08-19T06:16:21;10.45;;;5.00;;
40635;SDS011;26642;55.766;37.828;2022-08-19T06:18:48;7.80;;;4.53;;
40635;SDS011;26642;55.766;37.828;2022-08-19T06:21:17;10.80;;;5.05;;
40635;SDS011;26642;55.766;37.828;2022-08-19T06:23:47;6.40;;;5.13;;
40635;SDS011;26642;55.766;37.828;2022-08-19T06:26:14;12.07;;;4.95;;
40635;SDS011;26642;55.766;37.828;2022-08-19T06:28:41;11.05;;;4.80;;
40635;SDS011;26642;55.766;37.828;2022-08-19T06:31:10;7.20;;;4.60;;
40635;SDS011;26642;55.766;37.828;2022-08-19T06:33:37;9.73;;;4.80;;
40635;SDS011;26642;55.766;37.828;2022-08-19T06:36:04;9.13;;;4.97;;
40635;SDS011;26642;55.766;37.828;2022-08-19T06:38:31;8.18;;;4.75;;
40635;SDS011;26642;55.766;37.828;2022-08-19T06:41:02;11.30;;;4.65;;
40635;SDS011;26642;55.766;37.828;2022-08-19T06:43:29;10.88;;;4.32;;
40635;SDS011;26642;55.766;37.828;2022-08-19T06:45:56;7.35;;;4.32;;
40635;SDS011;26642;55.766;37.828;2022-08-19T06:48:24;7.88;;;4.30;;
40635;SDS011;26642;55.766;37.828;2022-08-19T06:50:50;8.05;;;4.43;;
40635;SDS011;26642;55.766;37.828;2022-08-19T06:53:16;10.48;;;4.93;;
40635;SDS011;26642;55.766;37.828;2022-08-19T06:55:44;9.40;;;4.80;;
40635;SDS011;26642;55.766;37.828;2022-08-19T06:58:11;5.63;;;4.63;;
40635;SDS011;26642;55.766;37.828;2022-08-19T07:00:37;8.93;;;4.50;;
40635;SDS011;26642;55.766;37.828;2022-08-19T07:03:02;6.55;;;4.57;;
40635;SDS011;26642;55.766;37.828;2022-08-19T07:05:28;8.57;;;4.95;;
40635;SDS011;26642;55.766;37.828;2022-08-19T07:07:54;9.73;;;4.63;;
40635;SDS011;26642;55.766;37.828;2022-08-19T07:10:22;6.63;;;4.53;;
40635;SDS011;26642;55.766;37.828;2022-08-19T07:12:48;7.57;;;4.60;;
40635;SDS011;26642;55.766;37.828;2022-08-19T07:15:15;8.93;;;4.78;;
40635;SDS011;26642;55.766;37.828;2022-08-19T07:17:41;10.00;;;4.60;;
40635;SDS011;26642;55.766;37.828;2022-08-19T07:20:09;8.38;;;4.55;;
40635;SDS011;26642;55.766;37.828;2022-08-19T07:22:36;7.57;;;4.32;;
40635;SDS011;26642;55.766;37.828;2022-08-19T07:25:03;6.85;;;4.63;;
40635;SDS011;26642;55.766;37.828;2022-08-19T07:27:32;9.68;;;4.15;;
40635;SDS011;26642;55.766;37.828;2022-08-19T07:29:59;8.63;;;4.32;;
40635;SDS011;26642;55.766;37.828;2022-08-19T07:32:25;6.63;;;4.18;;
40635;SDS011;26642;55.766;37.828;2022-08-19T07:34:51;13.95;;;4.78;;
40635;SDS011;26642;55.766;37.828;2022-08-19T07:37:17;8.00;;;4.47;;
40635;SDS011;26642;55.766;37.828;2022-08-19T07:39:43;8.18;;;4.93;;
40635;SDS011;26642;55.766;37.828;2022-08-19T07:42:12;8.82;;;4.78;;
40635;SDS011;26642;55.766;37.828;2022-08-19T07:44:39;7.30;;;4.72;;
40635;SDS011;26642;55.766;37.828;2022-08-19T07:47:05;6.40;;;4.72;;
40635;SDS011;26642;55.766;37.828;2022-08-19T07:49:32;6.90;;;4.68;;
40635;SDS011;26642;55.766;37.828;2022-08-19T07:52:01;10.35;;;4.72;;
40635;SDS011;26642;55.766;37.828;2022-08-19T07:54:31;10.77;;;4.78;;
40635;SDS011;26642;55.766;37.828;2022-08-19T07:57:01;7.95;;;4.93;;
40635;SDS011;26642;55.766;37.828;2022-08-19T07:59:28;8.73;;;5.30;;
40635;SDS011;26642;55.766;37.828;2022-08-19T08:01:55;8.10;;;4.85;;
40635;SDS011;26642;55.766;37.828;2022-08-19T08:04:21;11.85;;;5.45;;
40635;SDS011;26642;55.766;37.828;2022-08-19T08:07:06;10.90;;;5.00;;
40635;SDS011;26642;55.766;37.828;2022-08-19T08:09:52;7.40;;;4.85;;
40635;SDS011;26642;55.766;37.828;2022-08-19T08:12:20;7.40;;;4.90;;
40635;SDS011;26642;55.766;37.828;2022-08-19T08:14:55;8.90;;;4.55;;
40635;SDS011;26642;55.766;37.828;2022-08-19T08:17:23;10.55;;;5.03;;
40635;SDS011;26642;55.766;37.828;2022-08-19T08:19:51;8.75;;;4.80;;
40635;SDS011;26642;55.766;37.828;2022-08-19T08:22:18;5.85;;;4.25;;
40635;SDS011;26642;55.766;37.828;2022-08-19T08:27:37;6.35;;;4.15;;
40635;SDS011;26642;55.766;37.828;2022-08-19T08:30:09;8.75;;;4.55;;
40635;SDS011;26642;55.766;37.828;2022-08-19T08:32:39;11.88;;;4.80;;
40635;SDS011;26642;55.766;37.828;2022-08-19T08:35:06;6.32;;;3.90;;
40635;SDS011;26642;55.766;37.828;2022-08-19T08:37:35;9.35;;;4.47;;
40635;SDS011;26642;55.766;37.828;2022-08-19T08:40:05;8.90;;;4.10;;
40635;SDS011;26642;55.766;37.828;2022-08-19T08:42:45;6.50;;;3.95;;
40635;SDS011;26642;55.766;37.828;2022-08-19T08:45:19;7.53;;;4.60;;
40635;SDS011;26642;55.766;37.828;2022-08-19T08:47:48;9.00;;;4.32;;
40635;SDS011;26642;55.766;37.828;2022-08-19T08:53:05;11.20;;;3.95;;
40635;SDS011;26642;55.766;37.828;2022-08-19T08:55:33;8.18;;;4.10;;
40635;SDS011;26642;55.766;37.828;2022-08-19T08:58:06;4.38;;;3.53;;
40635;SDS011;26642;55.766;37.828;2022-08-19T09:00:46;6.53;;;4.22;;
40635;SDS011;26642;55.766;37.828;2022-08-19T09:03:20;10.02;;;4.25;;
40635;SDS011;26642;55.766;37.828;2022-08-19T09:09:06;8.50;;;3.92;;
40635;SDS011;26642;55.766;37.828;2022-08-19T09:14:18;7.50;;;4.30;;
40635;SDS011;26642;55.766;37.828;2022-08-19T09:17:16;10.05;;;4.20;;
40635;SDS011;26642;55.766;37.828;2022-08-19T09:22:15;8.75;;;3.92;;
40635;SDS011;26642;55.766;37.828;2022-08-19T09:24:41;5.82;;;3.78;;
40635;SDS011;26642;55.766;37.828;2022-08-19T09:27:07;6.00;;;3.40;;
40635;SDS011;26642;55.766;37.828;2022-08-19T09:29:33;5.25;;;3.30;;
40635;SDS011;26642;55.766;37.828;2022-08-19T09:31:59;8.27;;;3.90;;
40635;SDS011;26642;55.766;37.828;2022-08-19T09:34:25;6.40;;;3.40;;
40635;SDS011;26642;55.766;37.828;2022-08-19T09:36:51;5.35;;;3.30;;
40635;SDS011;26642;55.766;37.828;2022-08-19T09:39:18;6.18;;;3.45;;
40635;SDS011;26642;55.766;37.828;2022-08-19T09:41:44;5.43;;;3.55;;
40635;SDS011;26642;55.766;37.828;2022-08-19T09:44:10;4.00;;;3.25;;
40635;SDS011;26642;55.766;37.828;2022-08-19T09:46:37;6.68;;;3.30;;
40635;SDS011;26642;55.766;37.828;2022-08-19T09:49:03;5.32;;;3.17;;
40635;SDS011;26642;55.766;37.828;2022-08-19T09:51:31;9.77;;;3.38;;
40635;SDS011;26642;55.766;37.828;2022-08-19T09:54:01;5.00;;;2.92;;
40635;SDS011;26642;55.766;37.828;2022-08-19T09:56:29;5.88;;;2.80;;
40635;SDS011;26642;55.766;37.828;2022-08-19T09:58:57;8.88;;;2.92;;
40635;SDS011;26642;55.766;37.828;2022-08-19T10:01:29;6.60;;;2.75;;
40635;SDS011;26642;55.766;37.828;2022-08-19T10:03:57;6.85;;;3.00;;
40635;SDS011;26642;55.766;37.828;2022-08-19T10:06:25;7.75;;;2.83;;
40635;SDS011;26642;55.766;37.828;2022-08-19T10:08:55;5.85;;;2.80;;
40635;SDS011;26642;55.766;37.828;2022-08-19T10:11:21;7.88;;;3.55;;
40635;SDS011;26642;55.766;37.828;2022-08-19T10:13:47;8.18;;;2.85;;
40635;SDS011;26642;55.766;37.828;2022-08-19T10:16:15;8.50;;;3.78;;
40635;SDS011;26642;55.766;37.828;2022-08-19T10:18:45;6.40;;;2.95;;
40635;SDS011;26642;55.766;37.828;2022-08-19T10:21:15;8.57;;;3.13;;
40635;SDS011;26642;55.766;37.828;2022-08-19T10:23:44;9.90;;;3.17;;
40635;SDS011;26642;55.766;37.828;2022-08-19T10:26:12;10.38;;;3.17;;
40635;SDS011;26642;55.766;37.828;2022-08-19T10:28:40;7.75;;;2.88;;
40635;SDS011;26642;55.766;37.828;2022-08-19T10:31:07;7.68;;;2.53;;
40635;SDS011;26642;55.766;37.828;2022-08-19T10:33:34;6.47;;;2.78;;
40635;SDS011;26642;55.766;37.828;2022-08-19T10:36:09;4.65;;;2.80;;
40635;SDS011;26642;55.766;37.828;2022-08-19T10:38:40;5.82;;;2.38;;
40635;SDS011;26642;55.766;37.828;2022-08-19T10:41:14;7.00;;;2.40;;
40635;SDS011;26642;55.766;37.828;2022-08-19T10:43:45;9.10;;;2.42;;
40635;SDS011;26642;55.766;37.828;2022-08-19T10:46:13;5.60;;;2.42;;
40635;SDS011;26642;55.766;37.828;2022-08-19T10:48:41;9.73;;;2.72;;
40635;SDS011;26642;55.766;37.828;2022-08-19T10:51:08;11.77;;;2.72;;
40635;SDS011;26642;55.766;37.828;2022-08-19T10:53:53;12.45;;;2.72;;
40635;SDS011;26642;55.766;37.828;2022-08-19T10:56:21;5.47;;;2.10;;
40635;SDS011;26642;55.766;37.828;2022-08-19T10:59:06;5.45;;;2.38;;
40635;SDS011;26642;55.766;37.828;2022-08-19T11:01:33;9.95;;;2.65;;
40635;SDS011;26642;55.766;37.828;2022-08-19T11:04:00;3.50;;;2.22;;
40635;SDS011;26642;55.766;37.828;2022-08-19T11:06:28;6.05;;;2.50;;
40635;SDS011;26642;55.766;37.828;2022-08-19T11:08:56;4.70;;;2.60;;
40635;SDS011;26642;55.766;37.828;2022-08-19T11:11:23;7.80;;;2.70;;
40635;SDS011;26642;55.766;37.828;2022-08-19T11:13:49;6.13;;;2.70;;
40635;SDS011;26642;55.766;37.828;2022-08-19T11:16:21;8.23;;;2.45;;
40635;SDS011;26642;55.766;37.828;2022-08-19T11:18:51;5.93;;;2.38;;
40635;SDS011;26642;55.766;37.828;2022-08-19T11:21:23;7.05;;;2.35;;
40635;SDS011;26642;55.766;37.828;2022-08-19T11:23:51;7.28;;;2.50;;
40635;SDS011;26642;55.766;37.828;2022-08-19T11:26:20;7.60;;;2.35;;
40635;SDS011;26642;55.766;37.828;2022-08-19T11:28:47;5.45;;;2.55;;
40635;SDS011;26642;55.766;37.828;2022-08-19T11:31:15;4.47;;;2.17;;
40635;SDS011;26642;55.766;37.828;2022-08-19T11:33:43;7.45;;;2.55;;
40635;SDS011;26642;55.766;37.828;2022-08-19T11:36:09;6.78;;;2.60;;
40635;SDS011;26642;55.766;37.828;2022-08-19T11:38:36;4.93;;;2.47;;
40635;SDS011;26642;55.766;37.828;2022-08-19T11:41:03;6.25;;;2.85;;
40635;SDS011;26642;55.766;37.828;2022-08-19T11:43:34;3.95;;;2.47;;
40635;SDS011;26642;55.766;37.828;2022-08-19T11:46:05;5.63;;;2.60;;
40635;SDS011;26642;55.766;37.828;2022-08-19T11:48:32;3.58;;;2.42;;
40635;SDS011;26642;55.766;37.828;2022-08-19T11:50:59;4.05;;;2.45;;
40635;SDS011;26642;55.766;37.828;2022-08-19T11:53:31;10.27;;;2.90;;
40635;SDS011;26642;55.766;37.828;2022-08-19T11:55:57;8.80;;;2.88;;
40635;SDS011;26642;55.766;37.828;2022-08-19T11:58:23;5.18;;;2.78;;
40635;SDS011;26642;55.766;37.828;2022-08-19T12:00:52;3.28;;;2.83;;
40635;SDS011;26642;55.766;37.828;2022-08-19T12:03:18;9.95;;;3.30;;
40635;SDS011;26642;55.766;37.828;2022-08-19T12:05:45;5.43;;;2.92;;
40635;SDS011;26642;55.766;37.828;2022-08-19T12:08:11;3.63;;;2.88;;
40635;SDS011;26642;55.766;37.828;2022-08-19T12:10:41;5.35;;;2.70;;
40635;SDS011;26642;55.766;37.828;2022-08-19T12:13:07;4.88;;;2.58;;
40635;SDS011;26642;55.766;37.828;2022-08-19T12:15:36;4.00;;;2.75;;
40635;SDS011;26642;55.766;37.828;2022-08-19T12:18:05;5.28;;;2.97;;
40635;SDS011;26642;55.766;37.828;2022-08-19T12:20:36;5.68;;;3.00;;
40635;SDS011;26642;55.766;37.828;2022-08-19T12:23:05;9.52;;;2.88;;
40635;SDS011;26642;55.766;37.828;2022-08-19T12:25:32;4.85;;;2.88;;
40635;SDS011;26642;55.766;37.828;2022-08-19T12:27:59;4.47;;;2.65;;
40635;SDS011;26642;55.766;37.828;2022-08-19T12:30:26;5.60;;;3.20;;
40635;SDS011;26642;55.766;37.828;2022-08-19T12:32:52;3.10;;;2.65;;
40635;SDS011;26642;55.766;37.828;2022-08-19T12:35:18;6.72;;;2.97;;
40635;SDS011;26642;55.766;37.828;2022-08-19T12:37:45;6.60;;;3.10;;
40635;SDS011;26642;55.766;37.828;2022-08-19T12:40:14;3.33;;;2.67;;
40635;SDS011;26642;55.766;37.828;2022-08-19T12:42:40;4.32;;;2.72;;
40635;SDS011;26642;55.766;37.828;2022-08-19T12:45:08;6.47;;;3.13;;
40635;SDS011;26642;55.766;37.828;2022-08-19T12:47:36;9.35;;;3.05;;
40635;SDS011;26642;55.766;37.828;2022-08-19T12:50:02;5.38;;;2.80;;
40635;SDS011;26642;55.766;37.828;2022-08-19T12:52:29;4.43;;;3.03;;
40635;SDS011;26642;55.766;37.828;2022-08-19T12:54:55;7.15;;;3.80;;
40635;SDS011;26642;55.766;37.828;2022-08-19T12:57:23;6.28;;;3.35;;
40635;SDS011;26642;55.766;37.828;2022-08-19T12:59:53;5.15;;;3.17;;
40635;SDS011;26642;55.766;37.828;2022-08-19T13:02:20;7.78;;;2.95;;
40635;SDS011;26642;55.766;37.828;2022-08-19T13:04:46;5.15;;;2.90;;
40635;SDS011;26642;55.766;37.828;2022-08-19T13:07:12;5.75;;;3.10;;
40635;SDS011;26642;55.766;37.828;2022-08-19T13:09:38;12.88;;;3.70;;
40635;SDS011;26642;55.766;37.828;2022-08-19T13:12:07;8.13;;;2.85;;
40635;SDS011;26642;55.766;37.828;2022-08-19T13:14:38;6.68;;;3.53;;
40635;SDS011;26642;55.766;37.828;2022-08-19T13:17:05;6.65;;;2.97;;
40635;SDS011;26642;55.766;37.828;2022-08-19T13:19:32;3.55;;;2.95;;
40635;SDS011;26642;55.766;37.828;2022-08-19T13:21:58;11.60;;;3.25;;
40635;SDS011;26642;55.766;37.828;2022-08-19T13:24:24;9.27;;;3.38;;
40635;SDS011;26642;55.766;37.828;2022-08-19T13:26:50;5.18;;;2.90;;
40635;SDS011;26642;55.766;37.828;2022-08-19T13:29:16;8.68;;;3.10;;
40635;SDS011;26642;55.766;37.828;2022-08-19T13:32:00;8.02;;;3.33;;
40635;SDS011;26642;55.766;37.828;2022-08-19T13:34:45;6.90;;;3.15;;
40635;SDS011;26642;55.766;37.828;2022-08-19T13:37:12;6.28;;;2.92;;
40635;SDS011;26642;55.766;37.828;2022-08-19T13:39:38;5.90;;;3.25;;
40635;SDS011;26642;55.766;37.828;2022-08-19T13:42:04;7.00;;;3.50;;
40635;SDS011;26642;55.766;37.828;2022-08-19T13:44:32;11.57;;;3.15;;
40635;SDS011;26642;55.766;37.828;2022-08-19T13:47:03;5.65;;;3.20;;
40635;SDS011;26642;55.766;37.828;2022-08-19T13:49:35;6.93;;;3.47;;
40635;SDS011;26642;55.766;37.828;2022-08-19T13:52:02;9.27;;;3.30;;
40635;SDS011;26642;55.766;37.828;2022-08-19T13:54:31;7.68;;;3.33;;
40635;SDS011;26642;55.766;37.828;2022-08-19T13:56:57;9.88;;;3.40;;
40635;SDS011;26642;55.766;37.828;2022-08-19T13:59:23;8.43;;;3.90;;
40635;SDS011;26642;55.766;37.828;2022-08-19T14:01:50;11.30;;;3.60;;
40635;SDS011;26642;55.766;37.828;2022-08-19T14:04:16;12.98;;;3.90;;
40635;SDS011;26642;55.766;37.828;2022-08-19T14:06:42;4.88;;;3.72;;
40635;SDS011;26642;55.766;37.828;2022-08-19T14:09:08;9.70;;;4.03;;
40635;SDS011;26642;55.766;37.828;2022-08-19T14:11:34;5.13;;;3.70;;
40635;SDS011;26642;55.766;37.828;2022-08-19T14:14:00;6.75;;;4.05;;
40635;SDS011;26642;55.766;37.828;2022-08-19T14:16:25;7.78;;;4.28;;
40635;SDS011;26642;55.766;37.828;2022-08-19T14:18:52;8.38;;;4.60;;
40635;SDS011;26642;55.766;37.828;2022-08-19T14:21:22;11.43;;;4.72;;
40635;SDS011;26642;55.766;37.828;2022-08-19T14:23:50;9.38;;;4.35;;
40635;SDS011;26642;55.766;37.828;2022-08-19T14:26:17;9.20;;;4.80;;
40635;SDS011;26642;55.766;37.828;2022-08-19T14:28:44;8.32;;;4.72;;
40635;SDS011;26642;55.766;37.828;2022-08-19T14:31:11;12.02;;;4.85;;
40635;SDS011;26642;55.766;37.828;2022-08-19T14:33:38;10.57;;;4.20;;
40635;SDS011;26642;55.766;37.828;2022-08-19T14:36:05;8.20;;;4.70;;
40635;SDS011;26642;55.766;37.828;2022-08-19T14:38:31;7.63;;;3.90;;
40635;SDS011;26642;55.766;37.828;2022-08-19T14:41:13;10.20;;;4.35;;
40635;SDS011;26642;55.766;37.828;2022-08-19T14:43:45;7.20;;;4.00;;
40635;SDS011;26642;55.766;37.828;2022-08-19T14:46:17;7.00;;;3.67;;
40635;SDS011;26642;55.766;37.828;2022-08-19T14:48:46;8.43;;;3.75;;
40635;SDS011;26642;55.766;37.828;2022-08-19T14:51:13;8.25;;;3.47;;